sensor_id;sensor_type;location;lat;lon;timestamp;pressure;altitude;pressure_sealevel;temperature;humidity
49194;BME280;35029;50.804;12.866;2023-10-19T00:02:06;96305.38;;;8.03;86.78
49194;BME280;35029;50.804;12.866;2023-10-19T00:04:32;96303.31;;;8.11;84.98
49194;BME280;35029;50.804;12.866;2023-10-19T00:07:01;96290.75;;;8.07;83.91
49194;BME280;35029;50.804;12.866;2023-10-19T00:09:26;96289.28;;;8.11;83.21
49194;BME280;35029;50.804;12.866;2023-10-19T00:11:57;96302.03;;;8.21;83.44
49194;BME280;35029;50.804;12.866;2023-10-19T00:14:23;96276.53;;;8.08;83.36
49194;BME280;35029;50.804;12.866;2023-10-19T00:16:51;96280.75;;;8.16;82.16
49194;BME280;35029;50.804;12.866;2023-10-19T00:19:25;96280.53;;;8.17;83.28
49194;BME280;35029;50.804;12.866;2023-10-19T00:21:54;96274.19;;;8.25;81.99
49194;BME280;35029;50.804;12.866;2023-10-19T00:24:34;96245.41;;;8.17;81.17
49194;BME280;35029;50.804;12.866;2023-10-19T00:27:00;96252.22;;;8.24;82.76
49194;BME280;35029;50.804;12.866;2023-10-19T00:29:35;96249.81;;;8.23;84.24
49194;BME280;35029;50.804;12.866;2023-10-19T00:32:07;96253.97;;;8.12;84.64
49194;BME280;35029;50.804;12.866;2023-10-19T00:34:40;96208.09;;;7.88;85.55
49194;BME280;35029;50.804;12.866;2023-10-19T00:37:06;96236.78;;;8.03;87.89
49194;BME280;35029;50.804;12.866;2023-10-19T00:39:36;96234.34;;;8.01;86.88
49194;BME280;35029;50.804;12.866;2023-10-19T00:42:19;96238.47;;;7.97;88.05
49194;BME280;35029;50.804;12.866;2023-10-19T00:44:49;96254.50;;;7.95;88.21
49194;BME280;35029;50.804;12.866;2023-10-19T00:47:15;96252.31;;;7.92;86.98
49194;BME280;35029;50.804;12.866;2023-10-19T00:49:47;96255.31;;;7.96;87.29
49194;BME280;35029;50.804;12.866;2023-10-19T00:52:16;96245.56;;;7.97;88.63
49194;BME280;35029;50.804;12.866;2023-10-19T00:54:46;96239.91;;;7.93;87.95
49194;BME280;35029;50.804;12.866;2023-10-19T00:57:17;96191.19;;;7.70;87.77
49194;BME280;35029;50.804;12.866;2023-10-19T00:59:58;96209.13;;;7.87;87.14
49194;BME280;35029;50.804;12.866;2023-10-19T01:02:42;96221.22;;;7.94;87.60
49194;BME280;35029;50.804;12.866;2023-10-19T01:05:11;96224.25;;;7.98;87.53
49194;BME280;35029;50.804;12.866;2023-10-19T01:07:50;96232.56;;;8.02;89.94
49194;BME280;35029;50.804;12.866;2023-10-19T01:10:22;96214.75;;;7.90;90.96
49194;BME280;35029;50.804;12.866;2023-10-19T01:12:49;96209.97;;;7.81;91.33
49194;BME280;35029;50.804;12.866;2023-10-19T01:15:19;96218.59;;;7.94;92.08
49194;BME280;35029;50.804;12.866;2023-10-19T01:17:56;96188.66;;;7.82;90.39
49194;BME280;35029;50.804;12.866;2023-10-19T01:20:31;96203.56;;;7.95;91.81
49194;BME280;35029;50.804;12.866;2023-10-19T01:23:03;96211.50;;;7.95;92.65
49194;BME280;35029;50.804;12.866;2023-10-19T01:25:56;96186.88;;;8.01;89.88
49194;BME280;35029;50.804;12.866;2023-10-19T01:28:36;96169.34;;;8.07;89.92
49194;BME280;35029;50.804;12.866;2023-10-19T01:31:10;96167.09;;;8.10;90.99
49194;BME280;35029;50.804;12.866;2023-10-19T01:33:59;96154.91;;;7.91;94.53
49194;BME280;35029;50.804;12.866;2023-10-19T01:36:34;96152.09;;;7.86;96.16
49194;BME280;35029;50.804;12.866;2023-10-19T01:39:09;96132.97;;;7.72;98.73
49194;BME280;35029;50.804;12.866;2023-10-19T01:41:37;96123.75;;;7.56;100.00
49194;BME280;35029;50.804;12.866;2023-10-19T01:44:04;96146.31;;;7.52;100.00
49194;BME280;35029;50.804;12.866;2023-10-19T01:46:30;96130.09;;;7.48;100.00
49194;BME280;35029;50.804;12.866;2023-10-19T01:49:03;96132.72;;;7.48;100.00
49194;BME280;35029;50.804;12.866;2023-10-19T01:51:31;96117.63;;;7.37;100.00
49194;BME280;35029;50.804;12.866;2023-10-19T01:54:04;96109.81;;;7.23;100.00
49194;BME280;35029;50.804;12.866;2023-10-19T01:56:31;96104.97;;;7.20;100.00
49194;BME280;35029;50.804;12.866;2023-10-19T01:59:00;96107.91;;;7.31;100.00
49194;BME280;35029;50.804;12.866;2023-10-19T02:01:26;96100.50;;;7.21;100.00
49194;BME280;35029;50.804;12.866;2023-10-19T02:03:52;96115.06;;;7.23;100.00
49194;BME280;35029;50.804;12.866;2023-10-19T02:06:21;96103.75;;;7.23;100.00
49194;BME280;35029;50.804;12.866;2023-10-19T02:09:00;96097.09;;;7.14;100.00
49194;BME280;35029;50.804;12.866;2023-10-19T02:11:27;96092.84;;;7.13;100.00
49194;BME280;35029;50.804;12.866;2023-10-19T02:13:56;96059.34;;;6.94;100.00
49194;BME280;35029;50.804;12.866;2023-10-19T02:16:25;96097.06;;;7.20;100.00
49194;BME280;35029;50.804;12.866;2023-10-19T02:18:52;96100.72;;;7.19;100.00
49194;BME280;35029;50.804;12.866;2023-10-19T02:21:19;96079.31;;;7.09;100.00
49194;BME280;35029;50.804;12.866;2023-10-19T02:23:50;96081.47;;;7.19;100.00
49194;BME280;35029;50.804;12.866;2023-10-19T02:26:24;96091.13;;;7.25;100.00
49194;BME280;35029;50.804;12.866;2023-10-19T02:28:53;96074.34;;;7.19;100.00
49194;BME280;35029;50.804;12.866;2023-10-19T02:31:22;96063.81;;;7.19;100.00
49194;BME280;35029;50.804;12.866;2023-10-19T02:33:49;96080.53;;;7.32;100.00
49194;BME280;35029;50.804;12.866;2023-10-19T02:36:25;96072.19;;;7.35;100.00
49194;BME280;35029;50.804;12.866;2023-10-19T02:38:58;96076.69;;;7.34;100.00
49194;BME280;35029;50.804;12.866;2023-10-19T02:41:25;96078.06;;;7.37;100.00
49194;BME280;35029;50.804;12.866;2023-10-19T02:43:55;96060.34;;;7.25;100.00
49194;BME280;35029;50.804;12.866;2023-10-19T02:46:33;96066.13;;;7.34;100.00
49194;BME280;35029;50.804;12.866;2023-10-19T02:49:03;96051.19;;;7.28;100.00
49194;BME280;35029;50.804;12.866;2023-10-19T02:51:30;96065.47;;;7.39;100.00
49194;BME280;35029;50.804;12.866;2023-10-19T02:53:56;96059.41;;;7.38;100.00
49194;BME280;35029;50.804;12.866;2023-10-19T02:56:25;96059.34;;;7.45;100.00
49194;BME280;35029;50.804;12.866;2023-10-19T02:58:52;96050.03;;;7.42;100.00
49194;BME280;35029;50.804;12.866;2023-10-19T03:01:20;96054.06;;;7.45;100.00
49194;BME280;35029;50.804;12.866;2023-10-19T03:03:54;96039.56;;;7.36;100.00
49194;BME280;35029;50.804;12.866;2023-10-19T03:06:21;96050.19;;;7.48;100.00
49194;BME280;35029;50.804;12.866;2023-10-19T03:08:48;96053.63;;;7.48;100.00
49194;BME280;35029;50.804;12.866;2023-10-19T03:11:17;96042.28;;;7.48;100.00
49194;BME280;35029;50.804;12.866;2023-10-19T03:13:44;96045.50;;;7.50;100.00
49194;BME280;35029;50.804;12.866;2023-10-19T03:16:10;96041.47;;;7.47;100.00
49194;BME280;35029;50.804;12.866;2023-10-19T03:18:36;96034.53;;;7.53;100.00
49194;BME280;35029;50.804;12.866;2023-10-19T03:21:03;96027.88;;;7.50;100.00
49194;BME280;35029;50.804;12.866;2023-10-19T03:23:28;96027.88;;;7.50;100.00
49194;BME280;35029;50.804;12.866;2023-10-19T03:25:55;96025.66;;;7.47;100.00
49194;BME280;35029;50.804;12.866;2023-10-19T03:28:27;96013.72;;;7.44;100.00
49194;BME280;35029;50.804;12.866;2023-10-19T03:30:54;96023.63;;;7.49;100.00
49194;BME280;35029;50.804;12.866;2023-10-19T03:33:20;96020.31;;;7.54;100.00
49194;BME280;35029;50.804;12.866;2023-10-19T03:35:52;96000.50;;;7.51;100.00
49194;BME280;35029;50.804;12.866;2023-10-19T03:38:19;96009.34;;;7.57;100.00
49194;BME280;35029;50.804;12.866;2023-10-19T03:40:49;95997.25;;;7.49;100.00
49194;BME280;35029;50.804;12.866;2023-10-19T03:43:18;96011.16;;;7.56;100.00
49194;BME280;35029;50.804;12.866;2023-10-19T03:45:47;95987.44;;;7.56;100.00
49194;BME280;35029;50.804;12.866;2023-10-19T03:48:20;96001.44;;;7.57;100.00
49194;BME280;35029;50.804;12.866;2023-10-19T03:50:54;95977.63;;;7.45;100.00
49194;BME280;35029;50.804;12.866;2023-10-19T03:53:22;95987.31;;;7.51;100.00
49194;BME280;35029;50.804;12.866;2023-10-19T03:55:48;95979.75;;;7.55;100.00
49194;BME280;35029;50.804;12.866;2023-10-19T03:58:16;95987.00;;;7.59;100.00
49194;BME280;35029;50.804;12.866;2023-10-19T04:00:42;95964.59;;;7.50;100.00
49194;BME280;35029;50.804;12.866;2023-10-19T04:03:09;95966.78;;;7.53;100.00
49194;BME280;35029;50.804;12.866;2023-10-19T04:05:35;95978.28;;;7.59;100.00
49194;BME280;35029;50.804;12.866;2023-10-19T04:08:07;95979.31;;;7.58;100.00
49194;BME280;35029;50.804;12.866;2023-10-19T04:10:46;95959.53;;;7.49;100.00
49194;BME280;35029;50.804;12.866;2023-10-19T04:13:32;95981.28;;;7.63;100.00
49194;BME280;35029;50.804;12.866;2023-10-19T04:15:57;95973.59;;;7.61;100.00
49194;BME280;35029;50.804;12.866;2023-10-19T04:18:23;95948.72;;;7.57;100.00
49194;BME280;35029;50.804;12.866;2023-10-19T04:20:51;95967.09;;;7.64;100.00
49194;BME280;35029;50.804;12.866;2023-10-19T04:23:19;95945.69;;;7.53;100.00
49194;BME280;35029;50.804;12.866;2023-10-19T04:25:47;95952.72;;;7.59;100.00
49194;BME280;35029;50.804;12.866;2023-10-19T04:28:13;95957.78;;;7.61;100.00
49194;BME280;35029;50.804;12.866;2023-10-19T04:30:55;95945.03;;;7.58;100.00
49194;BME280;35029;50.804;12.866;2023-10-19T04:33:21;95948.72;;;7.57;100.00
49194;BME280;35029;50.804;12.866;2023-10-19T04:35:48;95940.78;;;7.57;100.00
49194;BME280;35029;50.804;12.866;2023-10-19T04:38:22;95947.00;;;7.63;100.00
49194;BME280;35029;50.804;12.866;2023-10-19T04:40:49;95945.41;;;7.61;100.00
49194;BME280;35029;50.804;12.866;2023-10-19T04:43:14;95950.44;;;7.63;100.00
49194;BME280;35029;50.804;12.866;2023-10-19T04:45:42;95923.94;;;7.58;100.00
49194;BME280;35029;50.804;12.866;2023-10-19T04:48:10;95946.34;;;7.67;100.00
49194;BME280;35029;50.804;12.866;2023-10-19T04:50:37;95939.44;;;7.66;100.00
49194;BME280;35029;50.804;12.866;2023-10-19T04:53:02;95936.63;;;7.68;100.00
49194;BME280;35029;50.804;12.866;2023-10-19T04:55:31;95915.44;;;7.56;100.00
49194;BME280;35029;50.804;12.866;2023-10-19T04:57:56;95935.94;;;7.72;100.00
49194;BME280;35029;50.804;12.866;2023-10-19T05:00:22;95920.41;;;7.64;100.00
49194;BME280;35029;50.804;12.866;2023-10-19T05:02:50;95922.25;;;7.64;100.00
49194;BME280;35029;50.804;12.866;2023-10-19T05:05:18;95929.19;;;7.76;100.00
49194;BME280;35029;50.804;12.866;2023-10-19T05:07:49;95926.09;;;7.79;100.00
49194;BME280;35029;50.804;12.866;2023-10-19T05:10:15;95898.31;;;7.65;100.00
49194;BME280;35029;50.804;12.866;2023-10-19T05:12:50;95914.63;;;7.74;100.00
49194;BME280;35029;50.804;12.866;2023-10-19T05:15:16;95904.16;;;7.67;100.00
49194;BME280;35029;50.804;12.866;2023-10-19T05:17:41;95913.69;;;7.68;100.00
49194;BME280;35029;50.804;12.866;2023-10-19T05:20:07;95909.34;;;7.74;100.00
49194;BME280;35029;50.804;12.866;2023-10-19T05:22:33;95897.25;;;7.66;100.00
49194;BME280;35029;50.804;12.866;2023-10-19T05:25:01;95917.84;;;7.76;100.00
49194;BME280;35029;50.804;12.866;2023-10-19T05:27:37;95913.59;;;7.75;100.00
49194;BME280;35029;50.804;12.866;2023-10-19T05:30:03;95909.19;;;7.69;100.00
49194;BME280;35029;50.804;12.866;2023-10-19T05:32:30;95912.19;;;7.72;100.00
49194;BME280;35029;50.804;12.866;2023-10-19T05:34:59;95914.28;;;7.70;100.00
49194;BME280;35029;50.804;12.866;2023-10-19T05:37:29;95902.63;;;7.59;100.00
49194;BME280;35029;50.804;12.866;2023-10-19T05:39:55;95885.84;;;7.54;100.00
49194;BME280;35029;50.804;12.866;2023-10-19T05:42:21;95867.47;;;7.47;100.00
49194;BME280;35029;50.804;12.866;2023-10-19T05:44:50;95910.25;;;7.68;100.00
49194;BME280;35029;50.804;12.866;2023-10-19T05:47:18;95895.97;;;7.57;100.00
49194;BME280;35029;50.804;12.866;2023-10-19T05:49:55;95917.41;;;7.60;100.00
49194;BME280;35029;50.804;12.866;2023-10-19T05:52:21;95917.56;;;7.66;100.00
49194;BME280;35029;50.804;12.866;2023-10-19T05:54:47;95896.38;;;7.54;100.00
49194;BME280;35029;50.804;12.866;2023-10-19T05:57:15;95906.84;;;7.60;100.00
49194;BME280;35029;50.804;12.866;2023-10-19T05:59:43;95911.81;;;7.69;100.00
49194;BME280;35029;50.804;12.866;2023-10-19T06:02:09;95911.41;;;7.72;100.00
49194;BME280;35029;50.804;12.866;2023-10-19T06:04:35;95893.38;;;7.69;100.00
49194;BME280;35029;50.804;12.866;2023-10-19T06:07:01;95910.66;;;7.83;100.00
49194;BME280;35029;50.804;12.866;2023-10-19T06:09:29;95896.88;;;7.81;100.00
49194;BME280;35029;50.804;12.866;2023-10-19T06:11:55;95904.03;;;7.92;100.00
49194;BME280;35029;50.804;12.866;2023-10-19T06:14:21;95904.03;;;7.92;100.00
49194;BME280;35029;50.804;12.866;2023-10-19T06:16:46;95907.97;;;8.02;100.00
49194;BME280;35029;50.804;12.866;2023-10-19T06:19:11;95901.75;;;7.96;100.00
49194;BME280;35029;50.804;12.866;2023-10-19T06:21:37;95900.84;;;8.02;100.00
49194;BME280;35029;50.804;12.866;2023-10-19T06:24:03;95910.88;;;8.12;100.00
49194;BME280;35029;50.804;12.866;2023-10-19T06:26:29;95915.13;;;8.13;100.00
49194;BME280;35029;50.804;12.866;2023-10-19T06:28:54;95920.53;;;8.18;100.00
49194;BME280;35029;50.804;12.866;2023-10-19T06:31:25;95909.03;;;8.12;100.00
49194;BME280;35029;50.804;12.866;2023-10-19T06:33:52;95913.28;;;8.13;100.00
49194;BME280;35029;50.804;12.866;2023-10-19T06:36:17;95926.84;;;8.17;100.00
49194;BME280;35029;50.804;12.866;2023-10-19T06:38:45;95908.09;;;8.07;100.00
49194;BME280;35029;50.804;12.866;2023-10-19T06:41:13;95940.97;;;8.23;100.00
49194;BME280;35029;50.804;12.866;2023-10-19T06:43:40;95932.69;;;8.19;100.00
49194;BME280;35029;50.804;12.866;2023-10-19T06:46:06;95931.66;;;8.20;100.00
49194;BME280;35029;50.804;12.866;2023-10-19T06:48:32;95932.72;;;8.31;100.00
49194;BME280;35029;50.804;12.866;2023-10-19T06:50:58;95939.84;;;8.31;100.00
49194;BME280;35029;50.804;12.866;2023-10-19T06:53:25;95942.38;;;8.25;100.00
49194;BME280;35029;50.804;12.866;2023-10-19T06:55:51;95920.97;;;8.15;100.00
49194;BME280;35029;50.804;12.866;2023-10-19T06:58:17;95937.66;;;8.27;100.00
49194;BME280;35029;50.804;12.866;2023-10-19T07:00:45;95930.41;;;8.23;100.00
49194;BME280;35029;50.804;12.866;2023-10-19T07:03:21;95937.53;;;8.22;100.00
49194;BME280;35029;50.804;12.866;2023-10-19T07:05:46;95933.84;;;8.23;100.00
49194;BME280;35029;50.804;12.866;2023-10-19T07:08:12;95933.66;;;8.25;100.00
49194;BME280;35029;50.804;12.866;2023-10-19T07:10:37;95929.72;;;8.27;100.00
49194;BME280;35029;50.804;12.866;2023-10-19T07:13:03;95925.50;;;8.26;100.00
49194;BME280;35029;50.804;12.866;2023-10-19T07:15:29;95938.00;;;8.31;100.00
49194;BME280;35029;50.804;12.866;2023-10-19T07:17:55;95925.19;;;8.35;100.00
49194;BME280;35029;50.804;12.866;2023-10-19T07:20:22;95921.63;;;8.41;100.00
49194;BME280;35029;50.804;12.866;2023-10-19T07:23:02;95920.66;;;8.54;100.00
49194;BME280;35029;50.804;12.866;2023-10-19T07:25:47;95918.25;;;8.64;100.00
49194;BME280;35029;50.804;12.866;2023-10-19T07:28:14;95913.31;;;8.68;100.00
49194;BME280;35029;50.804;12.866;2023-10-19T07:30:41;95911.25;;;8.70;100.00
49194;BME280;35029;50.804;12.866;2023-10-19T07:33:08;95913.88;;;8.70;100.00
49194;BME280;35029;50.804;12.866;2023-10-19T07:35:36;95906.69;;;8.77;100.00
49194;BME280;35029;50.804;12.866;2023-10-19T07:38:04;95900.94;;;8.80;100.00
49194;BME280;35029;50.804;12.866;2023-10-19T07:40:30;95890.22;;;8.75;100.00
49194;BME280;35029;50.804;12.866;2023-10-19T07:42:56;95891.63;;;8.77;100.00
49194;BME280;35029;50.804;12.866;2023-10-19T07:45:22;95906.81;;;8.82;100.00
49194;BME280;35029;50.804;12.866;2023-10-19T07:47:47;95901.84;;;8.86;100.00
49194;BME280;35029;50.804;12.866;2023-10-19T07:50:14;95896.56;;;8.86;100.00
49194;BME280;35029;50.804;12.866;2023-10-19T07:52:43;95896.09;;;8.89;100.00
49194;BME280;35029;50.804;12.866;2023-10-19T07:55:10;95892.19;;;8.91;100.00
49194;BME280;35029;50.804;12.866;2023-10-19T07:57:37;95887.25;;;8.95;100.00
49194;BME280;35029;50.804;12.866;2023-10-19T08:00:02;95882.31;;;8.99;100.00
49194;BME280;35029;50.804;12.866;2023-10-19T08:02:30;95856.13;;;8.85;100.00
49194;BME280;35029;50.804;12.866;2023-10-19T08:04:56;95893.69;;;9.11;100.00
49194;BME280;35029;50.804;12.866;2023-10-19T08:07:24;95889.63;;;9.20;100.00
49194;BME280;35029;50.804;12.866;2023-10-19T08:09:51;95892.88;;;9.22;100.00
49194;BME280;35029;50.804;12.866;2023-10-19T08:12:17;95867.47;;;9.21;100.00
49194;BME280;35029;50.804;12.866;2023-10-19T08:14:44;95889.75;;;9.37;100.00
49194;BME280;35029;50.804;12.866;2023-10-19T08:17:09;95885.59;;;9.41;100.00
49194;BME280;35029;50.804;12.866;2023-10-19T08:19:51;95898.81;;;9.53;100.00
49194;BME280;35029;50.804;12.866;2023-10-19T08:22:18;95883.06;;;9.46;100.00
49194;BME280;35029;50.804;12.866;2023-10-19T08:24:45;95896.59;;;9.50;100.00
49194;BME280;35029;50.804;12.866;2023-10-19T08:27:19;95899.59;;;9.54;100.00
49194;BME280;35029;50.804;12.866;2023-10-19T08:29:49;95896.59;;;9.50;100.00
49194;BME280;35029;50.804;12.866;2023-10-19T08:32:15;95896.03;;;9.48;100.00
49194;BME280;35029;50.804;12.866;2023-10-19T08:34:41;95894.31;;;9.54;100.00
49194;BME280;35029;50.804;12.866;2023-10-19T08:37:07;95899.25;;;9.50;100.00
49194;BME280;35029;50.804;12.866;2023-10-19T08:39:33;95903.50;;;9.51;100.00
49194;BME280;35029;50.804;12.866;2023-10-19T08:42:03;95902.38;;;9.47;100.00
49194;BME280;35029;50.804;12.866;2023-10-19T08:44:30;95885.59;;;9.41;100.00
49194;BME280;35029;50.804;12.866;2023-10-19T08:46:56;95903.25;;;9.53;100.00
49194;BME280;35029;50.804;12.866;2023-10-19T08:49:23;95905.69;;;9.54;100.00
49194;BME280;35029;50.804;12.866;2023-10-19T08:51:49;95907.28;;;9.55;100.00
49194;BME280;35029;50.804;12.866;2023-10-19T08:54:19;95911.91;;;9.60;100.00
49194;BME280;35029;50.804;12.866;2023-10-19T08:56:45;95900.63;;;9.53;100.00
49194;BME280;35029;50.804;12.866;2023-10-19T08:59:13;95887.22;;;9.42;100.00
49194;BME280;35029;50.804;12.866;2023-10-19T09:01:41;95904.09;;;9.53;100.00
49194;BME280;35029;50.804;12.866;2023-10-19T09:04:13;95910.28;;;9.59;100.00
49194;BME280;35029;50.804;12.866;2023-10-19T09:06:40;95902.47;;;9.64;100.00
49194;BME280;35029;50.804;12.866;2023-10-19T09:09:09;95891.75;;;9.59;100.00
49194;BME280;35029;50.804;12.866;2023-10-19T09:11:46;95895.88;;;9.67;100.00
49194;BME280;35029;50.804;12.866;2023-10-19T09:14:15;95897.81;;;9.71;100.00
49194;BME280;35029;50.804;12.866;2023-10-19T09:16:57;95890.69;;;9.72;100.00
49194;BME280;35029;50.804;12.866;2023-10-19T09:19:38;95893.19;;;9.78;100.00
49194;BME280;35029;50.804;12.866;2023-10-19T09:22:06;95889.28;;;9.81;100.00
49194;BME280;35029;50.804;12.866;2023-10-19T09:24:43;95880.53;;;9.80;100.00
49194;BME280;35029;50.804;12.866;2023-10-19T09:27:08;95879.13;;;9.90;100.00
49194;BME280;35029;50.804;12.866;2023-10-19T09:29:34;95853.03;;;9.81;100.00
49194;BME280;35029;50.804;12.866;2023-10-19T09:32:00;95887.59;;;10.04;100.00
49194;BME280;35029;50.804;12.866;2023-10-19T09:34:30;95857.97;;;9.90;100.00
49194;BME280;35029;50.804;12.866;2023-10-19T09:37:00;95880.19;;;10.06;100.00
49194;BME280;35029;50.804;12.866;2023-10-19T09:39:29;95879.00;;;10.13;100.00
49194;BME280;35029;50.804;12.866;2023-10-19T09:42:09;95893.72;;;10.21;100.00
49194;BME280;35029;50.804;12.866;2023-10-19T09:44:56;95876.47;;;10.19;100.00
49194;BME280;35029;50.804;12.866;2023-10-19T09:47:35;95884.91;;;10.32;100.00
49194;BME280;35029;50.804;12.866;2023-10-19T09:50:03;95877.06;;;10.38;100.00
49194;BME280;35029;50.804;12.866;2023-10-19T09:52:31;95887.34;;;10.51;100.00
49194;BME280;35029;50.804;12.866;2023-10-19T09:57:56;95877.25;;;10.65;100.00
49194;BME280;35029;50.804;12.866;2023-10-19T10:00:23;95868.16;;;10.61;100.00
49194;BME280;35029;50.804;12.866;2023-10-19T10:02:50;95873.44;;;10.78;100.00
49194;BME280;35029;50.804;12.866;2023-10-19T10:11:23;95876.22;;;11.05;100.00
49194;BME280;35029;50.804;12.866;2023-10-19T10:13:50;95871.38;;;11.19;100.00
49194;BME280;35029;50.804;12.866;2023-10-19T10:16:24;95854.41;;;11.20;100.00
49194;BME280;35029;50.804;12.866;2023-10-19T10:18:51;95867.13;;;11.40;100.00
49194;BME280;35029;50.804;12.866;2023-10-19T10:21:29;95852.41;;;11.49;100.00
49194;BME280;35029;50.804;12.866;2023-10-19T10:23:57;95845.84;;;11.57;100.00
49194;BME280;35029;50.804;12.866;2023-10-19T10:26:31;95843.91;;;11.75;100.00
49194;BME280;35029;50.804;12.866;2023-10-19T10:29:22;95840.88;;;11.88;100.00
49194;BME280;35029;50.804;12.866;2023-10-19T10:31:53;95838.56;;;11.97;100.00
49194;BME280;35029;50.804;12.866;2023-10-19T10:37:07;95836.50;;;11.99;100.00
49194;BME280;35029;50.804;12.866;2023-10-19T10:39:34;95828.00;;;12.02;100.00
49194;BME280;35029;50.804;12.866;2023-10-19T10:42:05;95826.50;;;12.11;100.00
49194;BME280;35029;50.804;12.866;2023-10-19T10:44:50;95818.03;;;12.14;100.00
49194;BME280;35029;50.804;12.866;2023-10-19T10:47:22;95820.22;;;12.23;100.00
49194;BME280;35029;50.804;12.866;2023-10-19T10:52:36;95814.94;;;12.60;100.00
49194;BME280;35029;50.804;12.866;2023-10-19T10:55:11;95823.00;;;12.76;100.00
49194;BME280;35029;50.804;12.866;2023-10-19T10:57:38;95803.81;;;12.68;100.00
49194;BME280;35029;50.804;12.866;2023-10-19T11:02:33;95800.38;;;12.73;100.00
49194;BME280;35029;50.804;12.866;2023-10-19T11:04:59;95812.09;;;12.72;100.00
49194;BME280;35029;50.804;12.866;2023-10-19T11:07:25;95814.50;;;12.74;100.00
49194;BME280;35029;50.804;12.866;2023-10-19T11:09:51;95805.75;;;12.78;100.00
49194;BME280;35029;50.804;12.866;2023-10-19T11:12:16;95813.97;;;12.77;100.00
49194;BME280;35029;50.804;12.866;2023-10-19T11:14:52;95807.38;;;12.84;100.00
49194;BME280;35029;50.804;12.866;2023-10-19T11:17:19;95790.88;;;12.82;100.00
49194;BME280;35029;50.804;12.866;2023-10-19T11:19:45;95804.06;;;13.15;100.00
49194;BME280;35029;50.804;12.866;2023-10-19T11:22:13;95785.31;;;13.37;100.00
49194;BME280;35029;50.804;12.866;2023-10-19T11:24:39;95793.38;;;13.68;100.00
49194;BME280;35029;50.804;12.866;2023-10-19T11:27:06;95781.69;;;13.84;100.00
49194;BME280;35029;50.804;12.866;2023-10-19T11:29:37;95783.03;;;13.87;100.00
49194;BME280;35029;50.804;12.866;2023-10-19T11:32:03;95786.25;;;13.99;100.00
49194;BME280;35029;50.804;12.866;2023-10-19T11:34:31;95789.16;;;13.93;100.00
49194;BME280;35029;50.804;12.866;2023-10-19T11:36:59;95792.34;;;14.00;100.00
49194;BME280;35029;50.804;12.866;2023-10-19T11:39:26;95795.81;;;14.06;100.00
49194;BME280;35029;50.804;12.866;2023-10-19T11:41:52;95801.44;;;13.99;100.00
49194;BME280;35029;50.804;12.866;2023-10-19T11:44:18;95784.38;;;14.10;100.00
49194;BME280;35029;50.804;12.866;2023-10-19T11:46:45;95789.97;;;14.19;100.00
49194;BME280;35029;50.804;12.866;2023-10-19T11:49:11;95793.44;;;14.35;100.00
49194;BME280;35029;50.804;12.866;2023-10-19T11:51:37;95784.91;;;14.38;100.00
49194;BME280;35029;50.804;12.866;2023-10-19T11:54:05;95774.78;;;14.40;100.00
49194;BME280;35029;50.804;12.866;2023-10-19T11:56:31;95789.16;;;14.60;100.00
49194;BME280;35029;50.804;12.866;2023-10-19T11:58:57;95786.25;;;14.51;100.00
49194;BME280;35029;50.804;12.866;2023-10-19T12:01:22;95739.63;;;14.33;100.00
49194;BME280;35029;50.804;12.866;2023-10-19T12:03:50;95780.13;;;14.66;100.00
49194;BME280;35029;50.804;12.866;2023-10-19T12:06:16;95780.91;;;14.51;100.00
49194;BME280;35029;50.804;12.866;2023-10-19T12:08:45;95781.97;;;14.60;100.00
49194;BME280;35029;50.804;12.866;2023-10-19T12:11:11;95780.91;;;14.72;100.00
49194;BME280;35029;50.804;12.866;2023-10-19T12:13:44;95754.19;;;14.87;100.00
49194;BME280;35029;50.804;12.866;2023-10-19T12:16:11;95752.03;;;14.94;100.00
49194;BME280;35029;50.804;12.866;2023-10-19T12:18:41;95752.56;;;15.01;100.00
49194;BME280;35029;50.804;12.866;2023-10-19T12:21:10;95775.47;;;15.13;100.00
49194;BME280;35029;50.804;12.866;2023-10-19T12:23:40;95759.44;;;15.13;100.00
49194;BME280;35029;50.804;12.866;2023-10-19T12:26:06;95763.44;;;15.20;100.00
49194;BME280;35029;50.804;12.866;2023-10-19T12:28:39;95743.72;;;15.11;100.00
49194;BME280;35029;50.804;12.866;2023-10-19T12:31:06;95755.13;;;15.27;100.00
49194;BME280;35029;50.804;12.866;2023-10-19T12:33:37;95759.59;;;15.42;100.00
49194;BME280;35029;50.804;12.866;2023-10-19T12:36:04;95755.13;;;15.27;100.00
49194;BME280;35029;50.804;12.866;2023-10-19T12:38:50;95756.75;;;15.23;100.00
49194;BME280;35029;50.804;12.866;2023-10-19T12:41:20;95742.66;;;15.12;100.00
49194;BME280;35029;50.804;12.866;2023-10-19T12:43:46;95735.22;;;15.04;100.00
49194;BME280;35029;50.804;12.866;2023-10-19T12:46:15;95721.59;;;15.00;100.00
49194;BME280;35029;50.804;12.866;2023-10-19T12:48:42;95737.81;;;15.14;100.00
49194;BME280;35029;50.804;12.866;2023-10-19T12:51:08;95732.47;;;15.19;100.00
49194;BME280;35029;50.804;12.866;2023-10-19T12:53:37;95746.09;;;15.18;100.00
49194;BME280;35029;50.804;12.866;2023-10-19T12:56:04;95744.22;;;15.18;100.00
49194;BME280;35029;50.804;12.866;2023-10-19T12:58:31;95741.25;;;15.20;100.00
49194;BME280;35029;50.804;12.866;2023-10-19T13:00:57;95735.97;;;15.15;100.00
49194;BME280;35029;50.804;12.866;2023-10-19T13:03:24;95743.94;;;15.20;100.00
49194;BME280;35029;50.804;12.866;2023-10-19T13:05:52;95739.38;;;15.26;100.00
49194;BME280;35029;50.804;12.866;2023-10-19T13:08:19;95735.22;;;15.04;100.00
49194;BME280;35029;50.804;12.866;2023-10-19T13:10:47;95739.25;;;14.91;100.00
49194;BME280;35029;50.804;12.866;2023-10-19T13:13:14;95721.69;;;14.80;100.00
49194;BME280;35029;50.804;12.866;2023-10-19T13:15:42;95733.13;;;14.80;100.00